createdAt,value
2019-04-14T00:02:09.625Z,7.97
2019-04-14T00:04:43.015Z,7.93
2019-04-14T00:07:14.461Z,7.92
2019-04-14T00:09:45.286Z,7.94
2019-04-14T00:12:14.899Z,7.92
2019-04-14T00:14:44.698Z,7.94
2019-04-14T00:17:15.159Z,7.97
2019-04-14T00:19:45.639Z,7.98
2019-04-14T00:22:16.205Z,7.94
2019-04-14T00:24:46.745Z,8.02
2019-04-14T00:27:17.158Z,8.08
2019-04-14T00:29:47.864Z,7.96
2019-04-14T00:32:18.318Z,8.07
2019-04-14T00:35:02.060Z,7.98
2019-04-14T00:37:40.210Z,8.07
2019-04-14T00:40:12.875Z,7.88
2019-04-14T00:43:02.672Z,7.76
2019-04-14T00:45:43.418Z,7.82
2019-04-14T00:48:14.434Z,7.81
2019-04-14T00:50:40.960Z,7.81
2019-04-14T00:53:10.379Z,7.87
2019-04-14T00:55:40.095Z,7.89
2019-04-14T00:58:10.348Z,7.93
2019-04-14T01:00:40.864Z,7.85
2019-04-14T01:03:11.285Z,7.90
2019-04-14T01:05:41.537Z,7.92
2019-04-14T01:08:11.967Z,7.78
2019-04-14T01:10:41.489Z,7.88
2019-04-14T01:13:12.436Z,7.97
2019-04-14T01:15:53.262Z,7.97
2019-04-14T01:18:15.347Z,7.93
2019-04-14T01:20:44.982Z,7.89
2019-04-14T01:23:15.102Z,7.88
2019-04-14T01:25:45.322Z,7.94
2019-04-14T01:28:15.827Z,7.94
2019-04-14T01:30:45.836Z,7.94
2019-04-14T01:33:16.264Z,7.79
2019-04-14T01:35:46.718Z,7.95
2019-04-14T01:38:16.960Z,7.98
2019-04-14T01:40:46.695Z,8.01
2019-04-14T01:43:16.742Z,8.00
2019-04-14T01:45:59.545Z,8.08
2019-04-14T01:48:17.325Z,8.06
2019-04-14T01:51:04.852Z,8.06
2019-04-14T01:54:02.381Z,8.02
2019-04-14T01:56:49.544Z,8.06
2019-04-14T01:59:19.837Z,8.04
2019-04-14T02:01:49.996Z,8.05
2019-04-14T02:04:20.342Z,8.09
2019-04-14T02:06:50.566Z,8.06
2019-04-14T02:09:20.870Z,8.19
2019-04-14T02:11:51.002Z,8.17
2019-04-14T02:14:21.193Z,8.15
2019-04-14T02:16:55.560Z,8.20
2019-04-14T02:19:22.022Z,8.27
2019-04-14T02:24:28.730Z,8.17
2019-04-14T02:26:59.128Z,8.18
2019-04-14T02:29:29.662Z,8.33
2019-04-14T02:32:25.504Z,8.20
2019-04-14T02:34:57.202Z,8.14
2019-04-14T02:37:26.703Z,8.16
2019-04-14T02:42:34.282Z,8.24
2019-04-14T02:45:00.226Z,8.13
2019-04-14T02:52:37.451Z,8.13
2019-04-14T02:55:04.395Z,8.12
2019-04-14T03:00:09.133Z,8.02
2019-04-14T03:02:41.423Z,8.02
2019-04-14T03:10:16.383Z,8.12
2019-04-14T03:15:16.932Z,8.04
2019-04-14T03:23:53.422Z,8.09
2019-04-14T03:26:35.213Z,8.14
2019-04-14T03:29:16.037Z,8.21
2019-04-14T03:32:04.650Z,8.16
2019-04-14T03:34:34.534Z,8.13
2019-04-14T03:39:17.422Z,8.24
2019-04-14T03:41:52.772Z,8.18
2019-04-14T03:44:33.446Z,8.16
2019-04-14T03:47:03.248Z,8.24
2019-04-14T03:49:26.301Z,8.28
2019-04-14T03:54:15.449Z,8.27
2019-04-14T03:56:53.588Z,8.23
2019-04-14T03:59:24.062Z,8.16
2019-04-14T04:01:54.484Z,8.27
2019-04-14T04:04:24.977Z,8.25
2019-04-14T04:06:55.373Z,8.18
2019-04-14T04:09:32.168Z,8.18
2019-04-14T04:12:02.035Z,8.21
2019-04-14T04:14:33.463Z,8.19
2019-04-14T04:17:21.196Z,8.23
2019-04-14T04:20:11.289Z,8.14
2019-04-14T04:22:58.731Z,8.21
2019-04-14T04:25:50.813Z,8.25
2019-04-14T04:28:32.159Z,8.10
2019-04-14T04:31:08.899Z,8.28
2019-04-14T04:33:57.276Z,8.25
2019-04-14T04:36:31.873Z,8.39
2019-04-14T04:39:08.290Z,8.38
2019-04-14T04:41:38.653Z,8.43
2019-04-14T04:44:09.314Z,8.39
2019-04-14T04:46:39.507Z,8.39
2019-04-14T04:49:15.115Z,8.42
2019-04-14T04:51:40.047Z,8.50
2019-04-14T04:54:10.298Z,8.62
2019-04-14T04:56:40.540Z,8.72
2019-04-14T04:59:10.012Z,8.86
2019-04-14T05:01:39.377Z,8.82
2019-04-14T05:04:09.051Z,8.77
2019-04-14T05:07:07.861Z,8.93
2019-04-14T05:09:57.789Z,9.06
2019-04-14T05:12:52.262Z,9.15
2019-04-14T05:15:40.799Z,9.21
2019-04-14T05:18:17.815Z,9.39
2019-04-14T05:20:47.180Z,9.31
2019-04-14T05:23:17.020Z,9.37
2019-04-14T05:25:47.395Z,9.43
2019-04-14T05:28:17.844Z,9.55
2019-04-14T05:30:48.296Z,9.61
2019-04-14T05:33:18.532Z,9.63
2019-04-14T05:36:17.180Z,9.57
2019-04-14T05:38:47.420Z,9.72
2019-04-14T05:41:18.023Z,9.77
2019-04-14T05:43:55.726Z,9.63
2019-04-14T05:46:23.060Z,9.53
2019-04-14T05:48:53.609Z,9.93
2019-04-14T05:51:24.563Z,9.95
2019-04-14T05:53:54.560Z,9.98
2019-04-14T05:56:25.173Z,10.14
2019-04-14T05:58:55.694Z,10.14
2019-04-14T06:01:25.170Z,10.24
2019-04-14T06:03:54.683Z,10.28
2019-04-14T06:06:24.044Z,10.29
2019-04-14T06:08:53.447Z,10.24
2019-04-14T06:11:22.850Z,10.33
2019-04-14T06:13:52.442Z,10.37
2019-04-14T06:16:21.830Z,10.39
2019-04-14T06:18:51.230Z,10.39
2019-04-14T06:21:20.613Z,10.38
2019-04-14T06:23:51.942Z,10.17
2019-04-14T06:26:21.332Z,10.14
2019-04-14T06:28:51.048Z,10.31
2019-04-14T06:32:02.134Z,10.39
2019-04-14T06:34:50.880Z,10.61
2019-04-14T06:37:49.654Z,10.81
2019-04-14T06:40:19.284Z,10.67
2019-04-14T06:42:57.232Z,10.61
2019-04-14T06:45:27.129Z,10.49
2019-04-14T06:48:01.002Z,10.45
2019-04-14T06:50:30.409Z,10.44
2019-04-14T06:52:59.816Z,10.72
2019-04-14T06:55:29.215Z,10.85
2019-04-14T06:57:58.853Z,10.85
2019-04-14T07:00:32.755Z,11.09
2019-04-14T07:03:02.505Z,11.20
2019-04-14T07:05:32.412Z,11.26
2019-04-14T07:08:01.800Z,11.44
2019-04-14T07:10:31.154Z,11.33
2019-04-14T07:13:00.546Z,11.04
2019-04-14T07:15:29.902Z,11.13
2019-04-14T07:18:02.054Z,11.19
2019-04-14T07:20:31.542Z,11.50
2019-04-14T07:23:00.993Z,11.78
2019-04-14T07:25:30.373Z,11.90
2019-04-14T07:27:59.797Z,12.06
2019-04-14T07:30:47.084Z,11.96
2019-04-14T07:33:28.580Z,12.06
2019-04-14T07:36:22.701Z,12.14
2019-04-14T07:39:11.065Z,12.09
2019-04-14T07:41:49.997Z,12.16
2019-04-14T07:44:37.146Z,12.15
2019-04-14T07:47:15.566Z,12.24
2019-04-14T07:50:14.461Z,12.27
2019-04-14T07:52:57.314Z,12.24
2019-04-14T07:55:36.180Z,12.29
2019-04-14T07:58:18.813Z,12.33
2019-04-14T08:01:00.648Z,12.28
2019-04-14T08:03:49.057Z,12.17
2019-04-14T08:06:18.493Z,12.20
2019-04-14T08:08:47.918Z,12.17
2019-04-14T08:11:17.449Z,11.87
2019-04-14T08:13:46.852Z,11.97
2019-04-14T08:16:16.356Z,12.19
2019-04-14T08:18:45.872Z,12.34
2019-04-14T08:21:15.310Z,12.39
2019-04-14T08:23:44.783Z,12.83
2019-04-14T08:26:14.258Z,13.16
2019-04-14T08:28:43.629Z,13.05
2019-04-14T08:31:13.059Z,13.38
2019-04-14T08:33:42.516Z,13.55
2019-04-14T08:36:11.908Z,13.55
2019-04-14T08:38:43.723Z,13.48
2019-04-14T08:41:13.094Z,13.37
2019-04-14T08:43:58.706Z,13.37
2019-04-14T08:46:45.789Z,13.70
2019-04-14T08:49:37.034Z,13.98
2019-04-14T08:52:40.443Z,14.02
2019-04-14T08:55:39.054Z,14.07
2019-04-14T08:58:27.921Z,14.23
2019-04-14T09:01:03.367Z,13.79
2019-04-14T09:04:03.899Z,13.78
2019-04-14T09:06:43.532Z,13.78
2019-04-14T09:09:34.512Z,14.18
2019-04-14T09:12:15.733Z,14.14
2019-04-14T09:14:56.255Z,14.23
2019-04-14T09:17:15.549Z,14.23
2019-04-14T09:19:44.955Z,14.15
2019-04-14T09:22:14.372Z,14.19
2019-04-14T09:24:43.718Z,14.19
2019-04-14T09:27:13.185Z,14.33
2019-04-14T09:29:42.590Z,14.29
2019-04-14T09:32:12.843Z,14.44
2019-04-14T09:34:42.243Z,14.39
2019-04-14T09:37:13.615Z,14.43
2019-04-14T09:39:43.100Z,14.25
2019-04-14T09:42:12.515Z,14.32
2019-04-14T09:44:41.974Z,14.03
2019-04-14T09:47:11.372Z,14.03
2019-04-14T09:49:40.753Z,14.25
2019-04-14T09:52:10.196Z,14.18
2019-04-14T09:54:41.687Z,14.23
2019-04-14T09:57:12.229Z,14.22
2019-04-14T09:59:41.957Z,14.22
2019-04-14T10:02:11.504Z,14.66
2019-04-14T10:04:41.141Z,14.66
2019-04-14T10:07:10.547Z,14.87
2019-04-14T10:09:40.074Z,15.02
2019-04-14T10:12:09.547Z,15.13
2019-04-14T10:14:38.934Z,15.08
2019-04-14T10:17:08.310Z,14.96
2019-04-14T10:19:37.831Z,15.00
2019-04-14T10:22:07.214Z,15.19
2019-04-14T10:24:36.625Z,15.22
2019-04-14T10:27:06.208Z,15.14
2019-04-14T10:29:35.563Z,15.14
2019-04-14T10:32:04.991Z,15.78
2019-04-14T10:34:34.427Z,16.01
2019-04-14T10:37:03.876Z,16.61
2019-04-14T10:39:33.378Z,16.78
2019-04-14T10:42:03.170Z,17.01
2019-04-14T10:44:32.568Z,16.92
2019-04-14T10:47:01.968Z,16.94
2019-04-14T10:49:31.379Z,17.10
2019-04-14T10:52:01.020Z,17.77
2019-04-14T10:54:30.382Z,18.34
2019-04-14T10:57:01.217Z,18.84
2019-04-14T10:59:30.824Z,19.41
2019-04-14T11:02:00.201Z,19.82
2019-04-14T11:04:29.628Z,20.33
2019-04-14T11:07:03.103Z,19.98
2019-04-14T11:09:32.535Z,20.14
2019-04-14T11:12:01.930Z,19.67
2019-04-14T11:14:31.353Z,19.42
2019-04-14T11:17:00.729Z,19.44
2019-04-14T11:19:30.130Z,19.30
2019-04-14T11:21:59.498Z,19.53
2019-04-14T11:24:28.982Z,19.65
2019-04-14T11:26:58.379Z,19.87
2019-04-14T11:29:27.701Z,19.64
2019-04-14T11:32:18.819Z,18.93
2019-04-14T11:34:52.791Z,18.51
2019-04-14T11:37:41.170Z,18.27
2019-04-14T11:40:14.139Z,18.74
2019-04-14T11:42:52.215Z,18.87
2019-04-14T11:45:14.581Z,19.32
2019-04-14T11:47:43.984Z,19.91
2019-04-14T11:50:14.762Z,19.56
2019-04-14T11:52:54.914Z,18.86
2019-04-14T11:55:24.326Z,18.86
2019-04-14T11:57:53.770Z,19.26
2019-04-14T12:00:34.353Z,18.93
2019-04-14T12:03:19.271Z,18.62
2019-04-14T12:06:10.077Z,19.33
2019-04-14T12:08:46.143Z,19.64
2019-04-14T12:11:15.542Z,20.00
2019-04-14T12:13:44.958Z,20.37
2019-04-14T12:16:14.374Z,20.41
2019-04-14T12:18:43.767Z,20.47
2019-04-14T12:21:13.242Z,20.49
2019-04-14T12:23:42.715Z,21.20
2019-04-14T12:26:12.096Z,20.92
2019-04-14T12:28:42.563Z,21.34
2019-04-14T12:31:13.138Z,21.35
2019-04-14T12:33:42.550Z,21.51
2019-04-14T12:36:13.679Z,21.08
2019-04-14T12:38:43.129Z,21.50
2019-04-14T12:41:17.764Z,21.20
2019-04-14T12:44:12.511Z,21.52
2019-04-14T12:46:48.519Z,22.03
2019-04-14T12:49:22.188Z,22.02
2019-04-14T12:52:20.522Z,21.42
2019-04-14T12:54:40.571Z,22.07
2019-04-14T12:57:09.993Z,21.80
2019-04-14T12:59:39.427Z,21.98
2019-04-14T13:02:15.974Z,22.28
2019-04-14T13:04:45.400Z,22.59
2019-04-14T13:07:14.779Z,21.94
2019-04-14T13:09:44.208Z,21.14
2019-04-14T13:12:13.594Z,20.09
2019-04-14T13:14:43.479Z,19.22
2019-04-14T13:17:12.994Z,18.74
2019-04-14T13:19:42.739Z,18.09
2019-04-14T13:22:12.152Z,17.57
2019-04-14T13:24:41.558Z,17.31
2019-04-14T13:27:11.057Z,16.92
2019-04-14T13:29:40.585Z,16.74
2019-04-14T13:32:10.051Z,16.69
2019-04-14T13:34:39.510Z,16.94
2019-04-14T13:37:09.008Z,17.73
2019-04-14T13:39:38.495Z,18.59
2019-04-14T13:42:10.199Z,18.29
2019-04-14T13:44:39.686Z,18.98
2019-04-14T13:47:09.064Z,19.22
2019-04-14T13:49:38.559Z,19.79
2019-04-14T13:52:07.975Z,19.87
2019-04-14T13:54:37.409Z,20.11
2019-04-14T13:57:06.821Z,19.60
2019-04-14T13:59:36.257Z,19.19
2019-04-14T14:02:05.653Z,19.36
2019-04-14T14:04:35.031Z,19.56
2019-04-14T14:07:05.394Z,19.85
2019-04-14T14:09:34.807Z,19.53
2019-04-14T14:12:12.581Z,19.68
2019-04-14T14:15:13.228Z,19.98
2019-04-14T14:17:54.285Z,19.39
2019-04-14T14:20:34.325Z,19.57
2019-04-14T14:23:10.027Z,19.46
2019-04-14T14:25:43.830Z,19.47
2019-04-14T14:28:13.232Z,19.87
2019-04-14T14:30:42.582Z,20.01
2019-04-14T14:33:12.036Z,20.14
2019-04-14T14:35:42.793Z,20.11
2019-04-14T14:38:13.503Z,20.37
2019-04-14T14:40:45.388Z,20.39
2019-04-14T14:43:14.789Z,20.51
2019-04-14T14:46:00.486Z,20.70
2019-04-14T14:48:33.749Z,20.86
2019-04-14T14:51:14.472Z,20.94
2019-04-14T14:53:43.839Z,20.45
2019-04-14T14:56:13.219Z,20.12
2019-04-14T14:58:45.227Z,19.46
2019-04-14T15:01:15.498Z,18.88
2019-04-14T15:03:45.049Z,18.30
2019-04-14T15:06:16.727Z,17.47
2019-04-14T15:08:46.174Z,16.97
2019-04-14T15:11:20.045Z,16.49
2019-04-14T15:13:49.729Z,16.14
2019-04-14T15:16:19.976Z,15.97
2019-04-14T15:18:49.393Z,16.45
2019-04-14T15:21:18.927Z,17.37
2019-04-14T15:23:48.308Z,17.76
2019-04-14T15:26:17.695Z,17.70
2019-04-14T15:28:47.110Z,17.80
2019-04-14T15:31:16.943Z,17.77
2019-04-14T15:33:46.415Z,17.64
2019-04-14T15:36:17.773Z,17.90
2019-04-14T15:38:47.142Z,18.14
2019-04-14T15:41:17.190Z,17.55
2019-04-14T15:43:46.653Z,17.37
2019-04-14T15:46:16.030Z,17.55
2019-04-14T15:48:45.900Z,17.26
2019-04-14T15:51:15.309Z,16.76
2019-04-14T15:53:45.673Z,16.21
2019-04-14T15:56:24.536Z,15.45
2019-04-14T15:59:06.034Z,15.26
2019-04-14T16:01:43.642Z,14.74
2019-04-14T16:04:41.110Z,14.74
2019-04-14T16:07:28.325Z,14.63
2019-04-14T16:10:03.651Z,14.48
2019-04-14T16:13:00.889Z,14.10
2019-04-14T16:15:58.172Z,13.94
2019-04-14T16:18:50.993Z,13.79
2019-04-14T16:21:20.565Z,13.60
2019-04-14T16:23:51.048Z,13.33
2019-04-14T16:26:48.763Z,13.30
2019-04-14T16:29:24.746Z,13.20
2019-04-14T16:32:20.326Z,13.11
2019-04-14T16:34:55.583Z,13.01
2019-04-14T16:37:25.363Z,12.81
2019-04-14T16:39:57.677Z,12.72
2019-04-14T16:42:27.057Z,12.57
2019-04-14T16:44:56.448Z,12.53
2019-04-14T16:47:25.904Z,12.47
2019-04-14T16:49:55.338Z,12.45
2019-04-14T16:52:32.175Z,12.45
2019-04-14T16:55:21.300Z,12.41
2019-04-14T16:58:09.710Z,12.38
2019-04-14T17:00:42.344Z,12.20
2019-04-14T17:03:12.333Z,12.24
2019-04-14T17:05:41.786Z,12.16
2019-04-14T17:08:11.120Z,12.19
2019-04-14T17:10:41.024Z,12.10
2019-04-14T17:13:10.400Z,12.02
2019-04-14T17:15:53.867Z,11.97
2019-04-14T17:18:39.468Z,11.87
2019-04-14T17:21:33.551Z,11.81
2019-04-14T17:24:26.697Z,11.85
2019-04-14T17:27:09.606Z,11.61
2019-04-14T17:29:49.997Z,11.58
2019-04-14T17:32:30.695Z,11.57
2019-04-14T17:35:25.060Z,11.52
2019-04-14T17:38:02.381Z,11.58
2019-04-14T17:40:59.643Z,11.38
2019-04-14T17:44:03.209Z,11.40
2019-04-14T17:46:49.909Z,11.56
2019-04-14T17:49:44.784Z,11.48
2019-04-14T17:52:48.382Z,11.48
2019-04-14T17:55:26.677Z,11.53
2019-04-14T17:58:04.890Z,11.54
2019-04-14T18:00:56.549Z,11.46
2019-04-14T18:03:41.248Z,11.43
2019-04-14T18:06:28.192Z,11.37
2019-04-14T18:09:15.754Z,11.37
2019-04-14T18:12:02.753Z,11.46
2019-04-14T18:14:59.859Z,11.27
2019-04-14T18:17:53.818Z,11.38
2019-04-14T18:20:32.962Z,11.41
2019-04-14T18:23:02.354Z,11.38
2019-04-14T18:25:31.716Z,11.42
2019-04-14T18:28:28.943Z,11.50
2019-04-14T18:31:08.097Z,11.33
2019-04-14T18:34:05.968Z,11.40
2019-04-14T18:36:52.802Z,11.34
2019-04-14T18:39:40.282Z,11.36
2019-04-14T18:42:19.121Z,11.36
2019-04-14T18:45:12.862Z,11.27
2019-04-14T18:48:19.888Z,11.31
2019-04-14T18:51:17.038Z,11.25
2019-04-14T18:54:17.238Z,11.19
2019-04-14T18:57:04.070Z,11.18
2019-04-14T18:59:37.699Z,11.08
2019-04-14T19:02:07.454Z,11.18
2019-04-14T19:04:36.837Z,11.04
2019-04-14T19:07:06.266Z,11.11
2019-04-14T19:09:35.472Z,11.05
2019-04-14T19:12:33.181Z,11.01
2019-04-14T19:15:21.528Z,11.06
2019-04-14T19:17:56.599Z,11.03
2019-04-14T19:20:25.943Z,11.09
2019-04-14T19:22:55.308Z,11.14
2019-04-14T19:25:24.733Z,11.06
2019-04-14T19:27:54.159Z,11.13
2019-04-14T19:30:23.657Z,11.15
2019-04-14T19:32:53.094Z,11.18
2019-04-14T19:35:22.505Z,11.17
2019-04-14T19:37:52.017Z,11.06
2019-04-14T19:40:21.474Z,11.11
2019-04-14T19:42:50.892Z,11.11
2019-04-14T19:45:20.299Z,11.06
2019-04-14T19:47:49.666Z,11.02
2019-04-14T19:50:19.163Z,11.04
2019-04-14T19:52:48.482Z,10.84
2019-04-14T19:55:20.676Z,10.93
2019-04-14T19:57:49.004Z,10.94
2019-04-14T20:00:18.823Z,10.96
2019-04-14T20:02:48.181Z,10.98
2019-04-14T20:05:17.522Z,10.91
2019-04-14T20:07:46.878Z,10.86
2019-04-14T20:10:16.246Z,10.94
2019-04-14T20:12:45.629Z,10.88
2019-04-14T20:15:18.165Z,10.90
2019-04-14T20:17:53.109Z,10.80
2019-04-14T20:20:50.703Z,10.83
2019-04-14T20:23:34.255Z,10.90
2019-04-14T20:26:34.937Z,10.81
2019-04-14T20:29:10.269Z,10.81
2019-04-14T20:31:46.700Z,10.79
2019-04-14T20:34:16.068Z,10.75
2019-04-14T20:36:45.489Z,10.62
2019-04-14T20:39:15.053Z,10.72
2019-04-14T20:41:44.547Z,10.83
2019-04-14T20:44:14.142Z,10.79
2019-04-14T20:46:43.466Z,10.81
2019-04-14T20:49:13.018Z,10.77
2019-04-14T20:51:42.359Z,10.82
2019-04-14T20:54:11.747Z,10.80
2019-04-14T20:56:41.225Z,10.81
2019-04-14T20:59:10.571Z,10.80
2019-04-14T21:01:43.132Z,10.73
2019-04-14T21:04:34.499Z,10.78
2019-04-14T21:07:34.950Z,10.74
2019-04-14T21:10:29.128Z,10.78
2019-04-14T21:13:20.899Z,10.68
2019-04-14T21:16:12.936Z,10.79
2019-04-14T21:18:47.794Z,10.61
2019-04-14T21:21:31.131Z,10.61
2019-04-14T21:24:08.994Z,10.50
2019-04-14T21:26:55.800Z,10.44
2019-04-14T21:29:56.362Z,10.52
2019-04-14T21:32:39.245Z,10.48
2019-04-14T21:35:26.409Z,10.46
2019-04-14T21:38:07.077Z,10.52
2019-04-14T21:40:53.602Z,10.44
2019-04-14T21:43:22.964Z,10.41
2019-04-14T21:45:52.348Z,10.43
2019-04-14T21:48:21.772Z,10.37
2019-04-14T21:50:51.129Z,10.31
2019-04-14T21:53:20.487Z,10.35
2019-04-14T21:55:49.881Z,10.34
2019-04-14T21:58:50.610Z,10.35
2019-04-14T22:01:55.898Z,10.31
2019-04-14T22:04:44.561Z,10.26
2019-04-14T22:07:39.075Z,10.19
2019-04-14T22:10:23.766Z,10.15
2019-04-14T22:12:53.100Z,10.17
2019-04-14T22:15:22.495Z,10.14
2019-04-14T22:17:51.876Z,10.14
2019-04-14T22:20:21.297Z,10.17
2019-04-14T22:22:50.652Z,10.20
2019-04-14T22:25:20.012Z,10.21
2019-04-14T22:27:49.381Z,10.16
2019-04-14T22:30:18.874Z,10.22
2019-04-14T22:32:48.237Z,10.16
2019-04-14T22:35:17.573Z,10.16
2019-04-14T22:37:46.978Z,10.06
2019-04-14T22:40:16.519Z,10.09
2019-04-14T22:42:46.158Z,10.15
2019-04-14T22:45:16.037Z,10.05
2019-04-14T22:47:45.394Z,10.12
2019-04-14T22:50:15.154Z,9.94
2019-04-14T22:52:44.526Z,10.04
2019-04-14T22:55:13.971Z,9.99
2019-04-14T22:57:43.352Z,9.97
2019-04-14T23:00:18.574Z,9.93
2019-04-14T23:03:05.162Z,9.88
2019-04-14T23:05:49.895Z,9.93
2019-04-14T23:08:41.001Z,9.94
2019-04-14T23:11:29.282Z,9.87
2019-04-14T23:14:23.512Z,9.92
2019-04-14T23:17:21.115Z,9.85
2019-04-14T23:20:00.801Z,9.84
2019-04-14T23:22:49.075Z,9.80
2019-04-14T23:25:18.455Z,9.83
2019-04-14T23:27:47.831Z,9.80
2019-04-14T23:30:17.328Z,9.81
2019-04-14T23:32:46.699Z,9.90
2019-04-14T23:35:16.059Z,9.83
2019-04-14T23:37:45.473Z,9.80
2019-04-14T23:40:15.528Z,9.79
2019-04-14T23:42:44.939Z,9.65
2019-04-14T23:45:14.516Z,9.68
2019-04-14T23:47:43.878Z,9.61
2019-04-14T23:50:13.401Z,9.60
2019-04-14T23:52:42.768Z,9.62
2019-04-14T23:55:12.187Z,9.58
2019-04-14T23:57:41.578Z,9.64
